createdAt,value
2022-12-08T00:01:10.813Z,22.50
2022-12-08T00:03:42.154Z,22.60
2022-12-08T00:07:02.398Z,22.50
2022-12-08T00:09:42.176Z,22.40
2022-12-08T00:12:15.427Z,22.60
2022-12-08T00:14:48.433Z,22.60
2022-12-08T00:17:19.952Z,22.70
2022-12-08T00:19:51.980Z,22.90
2022-12-08T00:22:22.473Z,23.10
2022-12-08T00:24:53.672Z,23.20
2022-12-08T00:27:24.225Z,23.10
2022-12-08T00:29:55.734Z,23.10
2022-12-08T00:32:26.124Z,23.20
2022-12-08T00:34:57.200Z,23.40
2022-12-08T00:37:27.687Z,23.40
2022-12-08T00:39:58.458Z,23.30
2022-12-08T00:42:30.060Z,23.40
2022-12-08T00:45:00.876Z,23.50
2022-12-08T00:47:31.650Z,23.70
2022-12-08T00:50:02.962Z,23.80
2022-12-08T00:52:33.179Z,23.90
2022-12-08T00:55:03.656Z,23.70
2022-12-08T00:57:35.307Z,23.80
2022-12-08T01:00:07.387Z,23.90
2022-12-08T01:02:38.205Z,24.00
2022-12-08T01:05:09.517Z,24.20
2022-12-08T01:07:40.420Z,24.40
2022-12-08T01:10:11.322Z,24.60
2022-12-08T01:12:41.686Z,24.80
2022-12-08T01:15:12.930Z,25.00
2022-12-08T01:17:43.618Z,24.70
2022-12-08T01:20:17.907Z,24.80
2022-12-08T01:22:48.353Z,24.90
2022-12-08T01:25:19.088Z,25.10
2022-12-08T01:27:50.007Z,25.40
2022-12-08T01:30:22.547Z,25.30
2022-12-08T01:32:53.934Z,25.50
2022-12-08T01:35:24.561Z,25.50
2022-12-08T01:37:55.215Z,25.80
2022-12-08T01:40:25.752Z,25.90
2022-12-08T01:42:56.118Z,25.90
2022-12-08T01:45:32.797Z,26.10
2022-12-08T01:48:10.865Z,26.20
2022-12-08T01:50:42.673Z,26.00
2022-12-08T01:53:25.455Z,26.20
2022-12-08T01:56:19.113Z,26.50
2022-12-08T01:58:56.286Z,26.30
2022-12-08T02:01:27.085Z,26.30
2022-12-08T02:04:06.763Z,26.40
2022-12-08T02:06:41.493Z,26.80
2022-12-08T02:09:12.931Z,26.70
2022-12-08T02:11:44.119Z,27.00
2022-12-08T02:14:16.790Z,27.00
2022-12-08T02:17:19.013Z,26.90
2022-12-08T02:20:20.819Z,27.10
2022-12-08T02:23:03.484Z,27.30
2022-12-08T02:26:12.667Z,27.40
2022-12-08T02:29:21.044Z,27.30
2022-12-08T02:32:30.313Z,27.20
2022-12-08T02:35:15.467Z,27.50
2022-12-08T02:38:10.651Z,27.50
2022-12-08T02:41:11.841Z,27.60
2022-12-08T02:43:49.085Z,27.60
2022-12-08T02:46:30.602Z,28.00
2022-12-08T02:49:02.681Z,28.00
2022-12-08T02:51:34.175Z,28.20
2022-12-08T02:54:05.704Z,28.10
2022-12-08T02:57:15.554Z,28.30
2022-12-08T03:00:10.745Z,28.60
2022-12-08T03:03:20.574Z,28.70
2022-12-08T03:06:18.636Z,28.90
2022-12-08T03:09:18.442Z,28.60
2022-12-08T03:12:06.826Z,28.80
2022-12-08T03:14:38.731Z,29.20
2022-12-08T03:17:09.926Z,29.50
2022-12-08T03:19:44.181Z,29.30
2022-12-08T03:22:15.788Z,29.40
2022-12-08T03:24:49.117Z,29.80
2022-12-08T03:27:32.044Z,29.30
2022-12-08T03:30:03.669Z,29.60
2022-12-08T03:33:02.775Z,29.50
2022-12-08T03:35:35.708Z,29.80
2022-12-08T03:38:15.892Z,30.00
2022-12-08T03:41:06.461Z,30.30
2022-12-08T03:43:37.411Z,30.40
2022-12-08T03:46:08.713Z,30.20
2022-12-08T03:48:39.552Z,30.30
2022-12-08T03:51:10.155Z,30.60
2022-12-08T03:53:41.210Z,30.50
2022-12-08T03:56:32.569Z,30.20
2022-12-08T03:59:03.720Z,30.80
2022-12-08T04:01:34.889Z,30.90
2022-12-08T04:04:05.694Z,31.20
2022-12-08T04:06:36.203Z,31.20
2022-12-08T04:09:06.702Z,31.00
2022-12-08T04:11:37.264Z,31.00
2022-12-08T04:14:07.875Z,31.40
2022-12-08T04:16:38.365Z,31.60
2022-12-08T04:19:09.074Z,31.10
2022-12-08T04:21:39.543Z,30.90
2022-12-08T04:24:11.022Z,30.70
2022-12-08T04:26:41.750Z,31.30
2022-12-08T04:29:12.162Z,31.30
2022-12-08T04:31:42.618Z,31.90
2022-12-08T04:34:13.281Z,31.60
2022-12-08T04:36:43.811Z,31.90
2022-12-08T04:39:14.783Z,32.00
2022-12-08T04:41:45.467Z,32.00
2022-12-08T04:44:15.916Z,32.30
2022-12-08T04:46:46.809Z,32.20
2022-12-08T04:49:17.270Z,32.00
2022-12-08T04:51:48.112Z,31.60
2022-12-08T04:54:18.968Z,32.30
2022-12-08T04:56:49.573Z,32.70
2022-12-08T04:59:20.071Z,32.80
2022-12-08T05:01:50.327Z,32.50
2022-12-08T05:04:20.864Z,32.70
2022-12-08T05:06:51.600Z,32.50
2022-12-08T05:09:21.704Z,32.60
2022-12-08T05:11:51.931Z,32.80
2022-12-08T05:14:22.652Z,32.80
2022-12-08T05:16:53.050Z,32.60
2022-12-08T05:19:23.638Z,32.80
2022-12-08T05:21:54.399Z,32.70
2022-12-08T05:24:24.897Z,33.00
2022-12-08T05:26:55.260Z,32.90
2022-12-08T05:29:25.678Z,32.90
2022-12-08T05:31:56.081Z,33.10
2022-12-08T05:34:26.721Z,33.40
2022-12-08T05:36:57.779Z,33.50
2022-12-08T05:39:28.289Z,33.40
2022-12-08T05:41:59.343Z,33.50
2022-12-08T05:44:29.955Z,33.40
2022-12-08T05:47:00.737Z,33.30
2022-12-08T05:49:31.504Z,33.20
2022-12-08T05:52:02.676Z,33.80
2022-12-08T05:54:33.199Z,33.80
2022-12-08T05:57:04.811Z,33.60
2022-12-08T05:59:35.866Z,33.60
2022-12-08T06:02:06.447Z,33.60
2022-12-08T06:04:37.808Z,33.70
2022-12-08T06:07:13.071Z,33.80
2022-12-08T06:09:46.454Z,33.80
2022-12-08T06:12:17.752Z,34.10
2022-12-08T06:14:48.424Z,33.80
2022-12-08T06:17:19.268Z,34.00
2022-12-08T06:19:50.140Z,33.80
2022-12-08T06:22:20.576Z,34.10
2022-12-08T06:24:51.323Z,33.90
2022-12-08T06:27:21.804Z,34.10
2022-12-08T06:29:52.598Z,34.10
2022-12-08T06:32:27.404Z,34.30
2022-12-08T06:34:58.569Z,34.60
2022-12-08T06:37:28.994Z,34.60
2022-12-08T06:39:59.607Z,34.70
2022-12-08T06:42:49.743Z,34.50
2022-12-08T06:45:20.934Z,34.60
2022-12-08T06:47:52.328Z,35.00
2022-12-08T06:50:23.151Z,35.00
2022-12-08T06:53:04.522Z,35.10
2022-12-08T06:55:58.815Z,34.80
2022-12-08T06:58:27.070Z,34.90
2022-12-08T07:00:57.575Z,35.00
2022-12-08T07:03:28.341Z,34.90
2022-12-08T07:06:03.749Z,34.70
2022-12-08T07:08:36.781Z,34.70
2022-12-08T07:11:20.919Z,34.90
2022-12-08T07:13:53.429Z,34.50
2022-12-08T07:16:23.932Z,35.00
2022-12-08T07:18:54.550Z,34.90
2022-12-08T07:21:25.629Z,34.80
2022-12-08T07:23:57.879Z,35.00
2022-12-08T07:26:28.708Z,35.00
2022-12-08T07:28:59.562Z,34.90
2022-12-08T07:31:30.615Z,34.80
2022-12-08T07:34:01.688Z,34.90
2022-12-08T07:36:32.258Z,34.80
2022-12-08T07:39:03.139Z,34.60
2022-12-08T07:41:33.814Z,34.90
2022-12-08T07:44:05.776Z,35.00
2022-12-08T07:46:36.596Z,34.90
2022-12-08T07:49:07.646Z,35.10
2022-12-08T07:51:38.106Z,35.00
2022-12-08T07:54:08.589Z,34.90
2022-12-08T07:56:39.316Z,34.70
2022-12-08T07:59:09.410Z,34.50
2022-12-08T08:01:40.600Z,34.40
2022-12-08T08:04:12.851Z,34.60
2022-12-08T08:06:43.361Z,34.40
2022-12-08T08:09:13.914Z,34.70
2022-12-08T08:12:01.113Z,34.60
2022-12-08T08:14:35.471Z,34.00
2022-12-08T08:17:06.091Z,34.10
2022-12-08T08:19:36.550Z,34.20
2022-12-08T08:22:07.520Z,34.20
2022-12-08T08:24:44.478Z,34.20
2022-12-08T08:27:15.597Z,34.40
2022-12-08T08:29:46.383Z,34.40
2022-12-08T08:32:16.986Z,34.50
2022-12-08T08:34:48.580Z,34.30
2022-12-08T08:37:19.758Z,34.20
2022-12-08T08:39:50.456Z,33.90
2022-12-08T08:42:20.618Z,33.80
2022-12-08T08:44:51.991Z,33.70
2022-12-08T08:47:22.963Z,33.80
2022-12-08T08:49:54.271Z,34.00
2022-12-08T08:52:24.741Z,34.00
2022-12-08T08:54:55.622Z,33.70
2022-12-08T08:57:26.643Z,33.20
2022-12-08T08:59:57.784Z,33.30
2022-12-08T09:02:28.113Z,33.60
2022-12-08T09:04:58.713Z,33.60
2022-12-08T09:07:29.192Z,33.70
2022-12-08T09:10:02.202Z,33.70
2022-12-08T09:12:32.983Z,33.70
2022-12-08T09:15:03.469Z,33.50
2022-12-08T09:17:34.633Z,33.30
2022-12-08T09:20:05.903Z,33.30
2022-12-08T09:22:37.269Z,33.00
2022-12-08T09:25:07.888Z,33.20
2022-12-08T09:27:38.415Z,33.00
2022-12-08T09:30:10.378Z,32.80
2022-12-08T09:32:41.300Z,32.80
2022-12-08T09:35:12.074Z,32.70
2022-12-08T09:37:43.154Z,32.70
2022-12-08T09:40:19.462Z,32.50
2022-12-08T09:43:15.959Z,32.40
2022-12-08T09:45:47.227Z,32.40
2022-12-08T09:48:37.623Z,32.20
2022-12-08T09:51:08.597Z,32.30
2022-12-08T09:53:50.845Z,32.20
2022-12-08T09:56:25.527Z,32.00
2022-12-08T09:59:14.190Z,32.00
2022-12-08T10:01:44.794Z,31.80
2022-12-08T10:04:40.537Z,31.70
2022-12-08T10:07:49.888Z,31.60
2022-12-08T10:10:43.688Z,31.60
2022-12-08T10:13:44.339Z,31.70
2022-12-08T10:16:44.585Z,31.60
2022-12-08T10:19:22.311Z,31.40
2022-12-08T10:21:55.185Z,31.40
2022-12-08T10:24:40.686Z,31.40
2022-12-08T10:27:14.791Z,31.50
2022-12-08T10:29:45.020Z,31.50
2022-12-08T10:32:23.533Z,31.50
2022-12-08T10:35:14.703Z,31.40
2022-12-08T10:37:58.971Z,31.30
2022-12-08T10:40:45.288Z,31.30
2022-12-08T10:43:21.126Z,31.10
2022-12-08T10:45:51.404Z,31.20
2022-12-08T10:48:48.848Z,31.10
2022-12-08T10:51:52.077Z,31.10
2022-12-08T10:54:39.384Z,31.10
2022-12-08T10:57:23.739Z,30.90
2022-12-08T10:59:57.563Z,30.80
2022-12-08T11:02:28.196Z,30.70
2022-12-08T11:05:02.156Z,30.50
2022-12-08T11:07:32.977Z,30.30
2022-12-08T11:10:03.739Z,30.20
2022-12-08T11:12:35.082Z,30.20
2022-12-08T11:15:07.470Z,30.30
2022-12-08T11:17:45.534Z,30.30
2022-12-08T11:20:25.552Z,30.10
2022-12-08T11:22:58.725Z,30.00
2022-12-08T11:25:30.679Z,29.80
2022-12-08T11:28:03.680Z,29.80
2022-12-08T11:30:39.982Z,29.90
2022-12-08T11:33:31.159Z,30.10
2022-12-08T11:36:14.108Z,30.20
2022-12-08T11:38:50.471Z,30.10
2022-12-08T11:41:27.031Z,30.00
2022-12-08T11:44:15.229Z,29.90
2022-12-08T11:47:01.333Z,29.80
2022-12-08T11:49:43.618Z,29.70
2022-12-08T11:52:43.847Z,29.70
2022-12-08T11:55:46.635Z,29.70
2022-12-08T11:58:40.411Z,29.80
2022-12-08T12:01:21.614Z,29.80
2022-12-08T12:04:30.836Z,29.70
2022-12-08T12:07:40.458Z,29.60
2022-12-08T12:10:44.366Z,29.60
2022-12-08T12:13:49.064Z,29.40
2022-12-08T12:16:47.248Z,29.40
2022-12-08T12:19:22.584Z,29.30
2022-12-08T12:21:57.641Z,29.30
2022-12-08T12:24:39.400Z,29.30
2022-12-08T12:27:34.785Z,29.20
2022-12-08T12:30:10.460Z,29.10
2022-12-08T12:32:48.604Z,29.10
2022-12-08T12:35:29.954Z,29.20
2022-12-08T12:38:29.060Z,29.20
2022-12-08T12:41:05.275Z,29.10
2022-12-08T12:43:38.556Z,29.10
2022-12-08T12:46:40.522Z,29.10
2022-12-08T12:49:50.192Z,29.10
2022-12-08T12:52:40.608Z,29.00
2022-12-08T12:55:30.642Z,29.00
2022-12-08T12:58:05.359Z,28.90
2022-12-08T13:00:36.552Z,29.10
2022-12-08T13:03:16.342Z,29.10
2022-12-08T13:05:55.246Z,28.90
2022-12-08T13:08:28.911Z,28.90
2022-12-08T13:11:17.078Z,28.80
2022-12-08T13:14:06.954Z,28.80
2022-12-08T13:16:41.081Z,28.80
2022-12-08T13:19:17.970Z,28.70
2022-12-08T13:21:49.085Z,28.60
2022-12-08T13:24:35.391Z,28.60
2022-12-08T13:27:34.439Z,28.50
2022-12-08T13:30:44.061Z,28.40
2022-12-08T13:33:25.858Z,28.50
2022-12-08T13:36:28.050Z,28.40
2022-12-08T13:39:00.879Z,28.30
2022-12-08T13:41:40.287Z,28.30
2022-12-08T13:47:37.129Z,28.20
2022-12-08T13:54:09.999Z,28.30
2022-12-08T13:59:37.452Z,28.10
2022-12-08T14:02:19.937Z,28.10
2022-12-08T14:07:43.066Z,28.30
2022-12-08T14:10:21.640Z,28.10
2022-12-08T14:13:03.042Z,28.10
2022-12-08T14:15:38.790Z,28.20
2022-12-08T14:18:28.646Z,28.20
2022-12-08T14:21:24.099Z,27.90
2022-12-08T14:23:55.077Z,27.80
2022-12-08T14:26:25.485Z,27.90
2022-12-08T14:28:56.019Z,27.90
2022-12-08T14:31:27.297Z,27.80
2022-12-08T14:33:58.189Z,27.60
2022-12-08T14:36:30.309Z,27.60
2022-12-08T14:39:00.929Z,27.50
2022-12-08T14:41:35.564Z,27.40
2022-12-08T14:44:06.437Z,27.30
2022-12-08T14:46:36.916Z,27.30
2022-12-08T14:49:07.311Z,27.30
2022-12-08T14:51:38.482Z,27.30
2022-12-08T14:54:14.852Z,27.20
2022-12-08T14:56:53.495Z,27.20
2022-12-08T14:59:44.137Z,27.10
2022-12-08T15:02:28.672Z,27.10
2022-12-08T15:05:15.163Z,27.10
2022-12-08T15:07:55.928Z,27.20
2022-12-08T15:10:31.014Z,27.20
2022-12-08T15:13:10.145Z,27.20
2022-12-08T15:16:00.056Z,27.20
2022-12-08T15:18:42.403Z,27.20
2022-12-08T15:21:14.552Z,27.00
2022-12-08T15:23:48.043Z,27.00
2022-12-08T15:26:28.798Z,27.00
2022-12-08T15:28:59.175Z,26.90
2022-12-08T15:31:29.722Z,26.70
2022-12-08T15:34:00.191Z,26.70
2022-12-08T15:36:30.734Z,26.80
2022-12-08T15:39:01.631Z,26.90
2022-12-08T15:41:31.932Z,26.70
2022-12-08T15:44:02.759Z,26.70
2022-12-08T15:46:33.272Z,26.70
2022-12-08T15:49:04.790Z,26.70
2022-12-08T15:51:38.340Z,26.50
2022-12-08T15:54:08.499Z,26.50
2022-12-08T15:57:17.490Z,26.40
2022-12-08T15:59:40.501Z,26.30
2022-12-08T16:02:22.204Z,26.20
2022-12-08T16:07:44.029Z,26.20
2022-12-08T16:10:20.143Z,26.30
2022-12-08T16:16:01.293Z,26.20
2022-12-08T16:18:36.349Z,26.20
2022-12-08T16:21:22.815Z,26.20
2022-12-08T16:23:57.511Z,26.20
2022-12-08T16:27:35.189Z,26.20
2022-12-08T16:29:23.122Z,26.00
2022-12-08T16:31:54.157Z,26.10
2022-12-08T16:34:24.971Z,26.10
2022-12-08T16:36:55.541Z,25.90
2022-12-08T16:39:25.613Z,25.90
2022-12-08T16:42:15.291Z,26.00
2022-12-08T16:44:45.358Z,25.90
2022-12-08T16:47:15.827Z,25.90
2022-12-08T16:49:48.998Z,25.90
2022-12-08T16:52:20.019Z,25.80
2022-12-08T16:54:51.886Z,25.80
2022-12-08T16:57:22.327Z,25.80
2022-12-08T16:59:52.771Z,25.70
2022-12-08T17:02:23.642Z,25.80
2022-12-08T17:04:55.380Z,25.80
2022-12-08T17:07:25.951Z,25.70
2022-12-08T17:09:56.416Z,25.60
2022-12-08T17:12:27.624Z,25.80
2022-12-08T17:15:06.000Z,25.70
2022-12-08T17:17:37.233Z,25.70
2022-12-08T17:20:17.479Z,25.80
2022-12-08T17:22:48.406Z,25.70
2022-12-08T17:25:19.493Z,25.80
2022-12-08T17:27:50.227Z,25.70
2022-12-08T17:30:22.647Z,25.70
2022-12-08T17:32:54.333Z,25.70
2022-12-08T17:35:25.106Z,25.60
2022-12-08T17:37:55.675Z,25.70
2022-12-08T17:40:28.374Z,25.60
2022-12-08T17:42:58.923Z,25.60
2022-12-08T17:45:29.423Z,25.50
2022-12-08T17:48:00.640Z,25.60
2022-12-08T17:50:31.401Z,25.50
2022-12-08T17:53:01.467Z,25.30
2022-12-08T17:55:32.040Z,25.30
2022-12-08T17:58:03.638Z,25.30
2022-12-08T18:00:35.218Z,25.20
2022-12-08T18:03:05.576Z,25.30
2022-12-08T18:05:36.811Z,25.20
2022-12-08T18:08:07.461Z,25.30
2022-12-08T18:10:38.128Z,25.20
2022-12-08T18:13:08.991Z,25.20
2022-12-08T18:15:39.562Z,25.20
2022-12-08T18:18:09.662Z,25.10
2022-12-08T18:20:40.932Z,25.20
2022-12-08T18:23:11.540Z,25.10
2022-12-08T18:25:41.576Z,24.90
2022-12-08T18:28:12.329Z,24.80
2022-12-08T18:30:43.323Z,24.70
2022-12-08T18:33:13.491Z,24.70
2022-12-08T18:35:43.958Z,24.70
2022-12-08T18:38:14.418Z,24.60
2022-12-08T18:40:44.842Z,24.60
2022-12-08T18:43:15.294Z,24.40
2022-12-08T18:45:46.037Z,24.50
2022-12-08T18:48:16.929Z,24.50
2022-12-08T18:50:47.725Z,24.50
2022-12-08T18:53:18.325Z,24.50
2022-12-08T18:55:49.280Z,24.50
2022-12-08T18:58:20.478Z,24.50
2022-12-08T19:00:50.901Z,24.50
2022-12-08T19:03:21.595Z,24.50
2022-12-08T19:05:52.179Z,24.50
2022-12-08T19:08:28.154Z,24.50
2022-12-08T19:11:03.050Z,24.40
2022-12-08T19:13:33.695Z,24.30
2022-12-08T19:16:04.206Z,24.30
2022-12-08T19:18:34.659Z,24.20
2022-12-08T19:21:05.236Z,24.20
2022-12-08T19:23:35.980Z,24.20
2022-12-08T19:26:06.749Z,24.20
2022-12-08T19:28:37.544Z,24.20
2022-12-08T19:31:09.775Z,24.20
2022-12-08T19:33:40.889Z,24.10
2022-12-08T19:36:18.149Z,24.00
2022-12-08T19:39:08.582Z,24.00
2022-12-08T19:41:59.453Z,23.90
2022-12-08T19:44:51.016Z,23.90
2022-12-08T19:47:23.436Z,23.90
2022-12-08T19:49:56.553Z,23.80
2022-12-08T19:52:27.698Z,23.80
2022-12-08T19:54:59.316Z,23.80
2022-12-08T19:57:30.059Z,23.70
2022-12-08T20:00:00.669Z,23.80
2022-12-08T20:02:31.530Z,23.80
2022-12-08T20:05:02.438Z,23.70
2022-12-08T20:07:32.846Z,23.80
2022-12-08T20:10:05.488Z,23.80
2022-12-08T20:12:36.282Z,23.70
2022-12-08T20:15:07.116Z,23.60
2022-12-08T20:17:38.240Z,23.70
2022-12-08T20:20:10.028Z,23.80
2022-12-08T20:22:40.744Z,23.80
2022-12-08T20:25:13.201Z,23.70
2022-12-08T20:27:44.135Z,23.70
2022-12-08T20:30:17.310Z,23.80
2022-12-08T20:32:48.169Z,23.80
2022-12-08T20:35:18.943Z,23.80
2022-12-08T20:37:49.576Z,23.80
2022-12-08T20:40:20.410Z,23.80
2022-12-08T20:42:50.851Z,23.60
2022-12-08T20:45:21.451Z,23.70
2022-12-08T20:47:52.870Z,23.70
2022-12-08T20:50:23.403Z,23.70
2022-12-08T20:52:54.021Z,23.70
2022-12-08T20:55:24.235Z,23.50
2022-12-08T20:57:55.932Z,23.40
2022-12-08T21:00:27.676Z,23.40
2022-12-08T21:02:58.648Z,23.40
2022-12-08T21:05:29.559Z,23.50
2022-12-08T21:08:00.329Z,23.60
2022-12-08T21:10:31.126Z,23.60
2022-12-08T21:13:03.676Z,23.60
2022-12-08T21:15:34.153Z,23.70
2022-12-08T21:18:04.840Z,23.60
2022-12-08T21:20:35.844Z,23.60
2022-12-08T21:23:06.332Z,23.60
2022-12-08T21:25:37.229Z,23.50
2022-12-08T21:28:08.110Z,23.40
2022-12-08T21:30:40.491Z,23.40
2022-12-08T21:33:12.074Z,23.30
2022-12-08T21:35:42.487Z,23.30
2022-12-08T21:38:13.661Z,23.10
2022-12-08T21:40:44.372Z,23.10
2022-12-08T21:43:15.512Z,23.10
2022-12-08T21:45:46.036Z,23.00
2022-12-08T21:48:16.908Z,23.00
2022-12-08T21:50:48.127Z,23.00
2022-12-08T21:53:19.077Z,23.00
2022-12-08T21:55:49.984Z,23.00
2022-12-08T21:58:20.414Z,23.00
2022-12-08T22:00:51.201Z,22.80
2022-12-08T22:03:21.890Z,22.70
2022-12-08T22:05:53.101Z,22.60
2022-12-08T22:08:23.732Z,22.70
2022-12-08T22:10:54.359Z,22.70
2022-12-08T22:13:24.888Z,22.80
2022-12-08T22:15:59.965Z,22.70
2022-12-08T22:18:30.823Z,22.60
2022-12-08T22:21:01.303Z,22.80
2022-12-08T22:23:32.274Z,22.70
2022-12-08T22:26:04.459Z,22.80
2022-12-08T22:28:37.810Z,22.70
2022-12-08T22:31:19.983Z,22.70
2022-12-08T22:33:51.875Z,22.80
2022-12-08T22:36:28.311Z,22.70
2022-12-08T22:38:58.924Z,22.70
2022-12-08T22:41:29.429Z,22.60
2022-12-08T22:43:59.765Z,22.50
2022-12-08T22:46:30.456Z,22.50
2022-12-08T22:49:00.990Z,22.50
2022-12-08T22:51:31.721Z,22.50
2022-12-08T22:54:02.200Z,22.60
2022-12-08T22:56:32.822Z,22.60
2022-12-08T22:59:03.513Z,22.50
2022-12-08T23:01:35.671Z,22.60
2022-12-08T23:04:08.314Z,22.50
2022-12-08T23:06:40.619Z,22.40
2022-12-08T23:09:10.763Z,22.40
2022-12-08T23:11:40.974Z,22.30
2022-12-08T23:14:11.357Z,22.30
2022-12-08T23:16:42.190Z,22.50
2022-12-08T23:19:12.858Z,22.40
2022-12-08T23:21:43.404Z,22.50
2022-12-08T23:24:14.243Z,22.50
2022-12-08T23:26:45.229Z,22.30
2022-12-08T23:29:15.480Z,22.30
2022-12-08T23:31:46.705Z,22.60
2022-12-08T23:34:17.039Z,22.50
2022-12-08T23:36:48.088Z,22.40
2022-12-08T23:39:19.139Z,22.60
2022-12-08T23:41:49.960Z,22.70
2022-12-08T23:44:20.756Z,22.70
2022-12-08T23:46:51.520Z,22.70
2022-12-08T23:49:22.968Z,22.80
2022-12-08T23:51:53.781Z,22.80
2022-12-08T23:54:24.352Z,22.90
2022-12-08T23:56:54.706Z,22.70
2022-12-08T23:59:25.450Z,22.60
